Time;durP1;ratioP1;P1;durP2;ratioP2;P2;SDS_P1;SDS_P2;PMS_P1;PMS_P2;Temp;Humidity;BMP_temperature;BMP_pressure;BME280_temperature;BME280_humidity;BME280_pressure;Samples;Min_cycle;Max_cycle;Signal;HPM_P1;HPM_P2
2024/03/12 00:01:19;;;;;;;;;;;;;;;5.32;100.00;100560.47;5068203;28;20028;-69
2024/03/12 00:03:44;;;;;;;99.22;41.58;;;;;;;5.24;100.00;100545.25;5071734;28;20049;-72
2024/03/12 00:06:10;;;;;;;102.40;39.88;;;;;;;5.19;100.00;100548.28;5066214;28;20032;-71
2024/03/12 00:08:36;;;;;;;105.43;41.97;;;;;;;5.19;100.00;100550.94;5074524;28;20499;-72
2024/03/12 00:11:03;;;;;;;125.90;46.85;;;;;;;4.95;100.00;100535.38;5066829;28;20510;-72
2024/03/12 00:13:29;;;;;;;103.78;45.03;;;;;;;5.05;100.00;100560.06;5071440;28;20020;-71
2024/03/12 00:15:55;;;;;;;99.57;41.70;;;;;;;5.22;100.00;100563.06;5066165;28;20032;-72
2024/03/12 00:18:25;;;;;;;117.88;43.63;;;;;;;5.16;100.00;100566.25;5065721;28;20199;-72
2024/03/12 00:20:51;;;;;;;124.25;44.38;;;;;;;5.02;100.00;100562.97;5072186;28;20038;-72
2024/03/12 00:23:16;;;;;;;110.10;46.85;;;;;;;4.99;100.00;100565.06;5067033;28;20060;-71
2024/03/12 00:25:42;;;;;;;113.97;45.97;;;;;;;5.06;100.00;100577.63;5070690;28;20056;-72
2024/03/12 00:28:08;;;;;;;124.87;47.27;;;;;;;5.18;100.00;100572.25;5065569;28;20036;-73
2024/03/12 00:30:34;;;;;;;120.90;46.08;;;;;;;5.05;100.00;100565.34;5070477;28;20283;-71
2024/03/12 00:33:00;;;;;;;132.02;47.50;;;;;;;4.99;100.00;100565.88;5078364;28;20039;-71
2024/03/12 00:35:32;;;;;;;118.30;46.35;;;;;;;5.02;100.00;100562.97;5065733;28;20036;-72
2024/03/12 00:37:58;;;;;;;121.22;47.80;;;;;;;4.96;100.00;100568.78;5059443;28;20055;-70
2024/03/12 00:40:33;;;;;;;201.35;54.13;;;;;;;4.82;100.00;100564.69;5073439;28;20115;-72
2024/03/12 00:42:59;;;;;;;122.50;46.78;;;;;;;4.97;100.00;100577.56;5078315;28;20090;-70
2024/03/12 00:45:25;;;;;;;194.73;53.78;;;;;;;4.77;100.00;100572.16;5070461;28;20132;-72
2024/03/12 00:47:56;;;;;;;148.18;52.67;;;;;;;4.89;100.00;100580.84;5070279;28;20777;-72
2024/03/12 00:50:22;;;;;;;155.00;53.75;;;;;;;4.96;100.00;100591.75;5077220;28;20071;-72
2024/03/12 00:52:53;;;;;;;165.23;53.08;;;;;;;4.95;100.00;100595.38;5075446;28;20039;-69
2024/03/12 00:55:20;;;;;;;230.45;58.85;;;;;;;4.94;100.00;100589.25;5063643;28;20044;-69
2024/03/12 00:57:48;;;;;;;157.98;53.75;;;;;;;4.78;100.00;100583.59;5067561;28;20024;-72
2024/03/12 01:00:17;;;;;;;138.27;53.15;;;;;;;4.96;100.00;100597.06;5077120;28;20036;-69
2024/03/12 01:02:49;;;;;;;140.13;54.20;;;;;;;5.02;100.00;100605.31;5065557;28;20060;-72
2024/03/12 01:05:20;;;;;;;157.73;52.72;;;;;;;5.10;100.00;100602.00;5064164;28;20123;-72
2024/03/12 01:07:47;;;;;;;196.55;55.05;;;;;;;5.00;100.00;100595.81;5064959;28;20032;-72
2024/03/12 01:10:13;;;;;;;280.33;63.80;;;;;;;4.86;100.00;100591.69;5071050;28;20823;-69
2024/03/12 01:12:39;;;;;;;263.38;63.42;;;;;;;4.95;100.00;100598.88;5057088;28;20046;-72
2024/03/12 01:15:08;;;;;;;143.98;53.00;;;;;;;4.99;100.00;100588.88;5069478;28;20103;-72
2024/03/12 01:17:34;;;;;;;140.98;51.78;;;;;;;5.11;100.00;100598.41;5064636;28;20047;-72
2024/03/12 01:19:59;;;;;;;167.43;55.08;;;;;;;5.12;100.00;100601.88;5063922;28;20051;-71
2024/03/12 01:22:24;;;;;;;352.70;70.70;;;;;;;4.94;100.00;100599.84;5069323;28;20060;-72
2024/03/12 01:24:51;;;;;;;140.00;53.20;;;;;;;5.02;100.00;100613.25;5070576;28;20352;-72
2024/03/12 01:27:17;;;;;;;147.40;52.95;;;;;;;4.96;100.00;100608.47;5069074;28;20039;-72
2024/03/12 01:29:43;;;;;;;270.15;61.35;;;;;;;4.85;100.00;100605.91;5067436;28;20052;-72
2024/03/12 01:32:09;;;;;;;308.52;66.05;;;;;;;4.69;100.00;100605.50;5071013;28;20028;-71
2024/03/12 01:34:34;;;;;;;326.83;64.72;;;;;;;4.79;100.00;100612.53;5067517;28;20032;-71
2024/03/12 01:37:00;;;;;;;338.42;71.25;;;;;;;4.75;100.00;100611.13;5065044;28;20094;-72
2024/03/12 01:39:26;;;;;;;142.63;56.60;;;;;;;4.95;100.00;100621.84;5060233;28;20538;-73
2024/03/12 01:41:52;;;;;;;188.05;56.45;;;;;;;5.04;100.00;100613.13;5070056;28;20043;-72
2024/03/12 01:44:18;;;;;;;163.15;57.42;;;;;;;5.02;100.00;100613.25;5072332;28;20109;-71
2024/03/12 01:46:45;;;;;;;149.93;54.13;;;;;;;5.10;100.00;100607.31;5064879;28;20028;-71
2024/03/12 01:49:12;;;;;;;386.40;73.07;;;;;;;4.99;100.00;100604.75;5074191;28;20036;-72
2024/03/12 01:51:38;;;;;;;304.00;63.88;;;;;;;4.88;100.00;100600.34;5059899;28;20017;-70
2024/03/12 01:54:04;;;;;;;;;;;;;;;5.04;100.00;100605.19;5065431;28;20128;-71
2024/03/12 01:56:31;;;;;;;189.30;53.25;;;;;;;5.08;100.00;100607.44;5064420;28;20007;-72
2024/03/12 01:58:57;;;;;;;149.80;55.97;;;;;;;5.06;100.00;100604.09;5052060;28;20074;-72
2024/03/12 02:01:26;;;;;;;246.55;65.43;;;;;;;5.02;100.00;100602.66;5074060;28;20042;-72
2024/03/12 02:03:52;;;;;;;167.18;60.83;;;;;;;5.12;100.00;100604.53;5064630;28;20032;-72
2024/03/12 02:06:27;;;;;;;299.65;67.53;;;;;;;4.55;100.00;100577.56;5064297;28;20747;-72
2024/03/12 02:08:53;;;;;;;217.40;60.03;;;;;;;4.47;100.00;100583.47;5073864;28;20088;-71
2024/03/12 02:11:19;;;;;;;211.15;57.55;;;;;;;4.55;100.00;100598.72;5064582;28;20581;-71
2024/03/12 02:13:45;;;;;;;;;;;;;;;4.32;100.00;100593.53;5073718;28;20028;-71
2024/03/12 02:16:11;;;;;;;178.18;58.10;;;;;;;4.46;100.00;100600.31;5077295;28;19920;-72
2024/03/12 02:18:37;;;;;;;226.82;63.65;;;;;;;4.57;100.00;100602.09;5058845;28;20133;-72
2024/03/12 02:21:03;;;;;;;;;;;;;;;4.67;100.00;100603.00;5078936;28;20032;-70
2024/03/12 02:23:42;;;;;;;151.52;53.05;;;;;;;4.62;100.00;100605.19;5070786;28;19908;-73
2024/03/12 02:26:09;;;;;;;178.30;57.25;;;;;;;4.64;100.00;100603.25;5067220;28;20039;-73
2024/03/12 02:28:36;;;;;;;158.32;53.47;;;;;;;4.67;100.00;100604.81;5063849;28;20032;-72
2024/03/12 02:31:04;;;;;;;207.95;58.95;;;;;;;4.56;100.00;100601.22;5057018;28;20441;-73
2024/03/12 02:33:30;;;;;;;280.05;63.83;;;;;;;4.22;100.00;100588.16;5064494;28;20045;-72
2024/03/12 02:35:56;;;;;;;;;;;;;;;4.48;100.00;100606.31;5063435;28;20116;-73
2024/03/12 02:38:21;;;;;;;152.57;50.83;;;;;;;4.49;100.00;100604.50;5067958;28;20370;-73
2024/03/12 02:40:46;;;;;;;145.18;54.50;;;;;;;4.64;100.00;100617.31;5081208;28;20032;-73
2024/03/12 02:43:13;;;;;;;189.35;58.97;;;;;;;4.59;100.00;100598.34;5078154;28;20020;-73
2024/03/12 02:45:39;;;;;;;125.70;50.45;;;;;;;4.63;100.00;100604.19;5063048;28;20035;-73
2024/03/12 02:48:05;;;;;;;;;;;;;;;4.69;100.00;100605.50;5078971;28;20566;-73
2024/03/12 02:50:31;;;;;;;225.45;56.75;;;;;;;4.37;100.00;100590.50;5069455;28;19987;-73
2024/03/12 02:52:57;;;;;;;319.88;67.15;;;;;;;4.30;100.00;100591.97;5068757;28;20454;-73
2024/03/12 02:55:22;;;;;;;324.20;70.30;;;;;;;4.26;100.00;100598.47;5079740;28;20031;-73
2024/03/12 02:57:48;;;;;;;296.40;64.75;;;;;;;4.23;100.00;100595.09;5086932;28;20047;-71
2024/03/12 03:00:14;;;;;;;223.20;62.07;;;;;;;4.31;100.00;100598.91;5078370;28;20028;-71
2024/03/12 03:02:43;;;;;;;170.25;56.08;;;;;;;4.57;100.00;100608.22;5081442;28;20274;-73
2024/03/12 03:05:12;;;;;;;282.30;66.57;;;;;;;4.58;100.00;100596.66;5070593;28;20387;-73
2024/03/12 03:07:41;;;;;;;148.98;54.30;;;;;;;4.43;100.00;100596.13;5083774;28;20027;-76
2024/03/12 03:10:07;;;;;;;343.02;66.35;;;;;;;4.33;100.00;100584.63;5067952;28;20036;-76
2024/03/12 03:12:32;;;;;;;384.10;75.63;;;;;;;4.44;100.00;100595.16;5083542;28;20032;-76
2024/03/12 03:14:58;;;;;;;385.80;72.57;;;;;;;4.29;100.00;100590.31;5071643;28;20043;-74
2024/03/12 03:17:23;;;;;;;234.05;62.40;;;;;;;4.29;100.00;100588.50;5077455;28;20116;-74
2024/03/12 03:19:49;;;;;;;450.45;78.30;;;;;;;4.19;100.00;100577.84;5087620;28;20024;-73
2024/03/12 03:22:15;;;;;;;402.25;73.55;;;;;;;4.10;100.00;100583.88;5073055;28;20379;-73
2024/03/12 03:24:40;;;;;;;170.38;56.85;;;;;;;4.23;100.00;100594.28;5087674;28;20081;-73
2024/03/12 03:27:07;;;;;;;157.32;56.58;;;;;;;4.43;100.00;100590.00;5087172;28;20024;-73
2024/03/12 03:29:35;;;;;;;451.02;80.60;;;;;;;4.20;100.00;100586.59;5087408;28;20035;-73
2024/03/12 03:32:01;;;;;;;232.18;64.72;;;;;;;4.26;100.00;100598.47;5075766;28;20047;-76
2024/03/12 03:34:29;;;;;;;401.13;86.55;;;;;;;4.30;100.00;100595.44;5080737;28;20016;-75
2024/03/12 03:36:55;;;;;;;176.50;56.35;;;;;;;4.39;100.00;100591.22;5081635;28;20035;-75
2024/03/12 03:39:25;;;;;;;175.75;56.25;;;;;;;4.57;100.00;100592.34;5086415;28;20032;-76
2024/03/12 03:41:52;;;;;;;143.85;53.90;;;;;;;4.68;100.00;100609.09;5083804;28;20063;-75
2024/03/12 03:44:17;;;;;;;354.73;69.53;;;;;;;4.57;100.00;100595.00;5080688;28;20030;-76
2024/03/12 03:46:43;;;;;;;374.00;71.13;;;;;;;4.21;100.00;100583.84;5068972;28;20025;-73
2024/03/12 03:49:08;;;;;;;212.32;61.20;;;;;;;4.23;100.00;100584.53;5076667;28;20040;-73
2024/03/12 03:51:35;;;;;;;451.83;80.93;;;;;;;4.16;100.00;100593.09;5079535;28;20051;-73
2024/03/12 03:54:01;;;;;;;;;;;;;;;4.20;100.00;100597.16;5082707;28;20365;-73
2024/03/12 03:56:27;;;;;;;181.02;52.97;;;;;;;4.23;100.00;100595.09;5076974;28;20487;-71
2024/03/12 03:58:56;;;;;;;234.60;58.47;;;;;;;4.20;100.00;100594.53;5075204;28;20803;-71
2024/03/12 04:01:23;;;;;;;201.13;66.05;;;;;;;4.43;100.00;100597.94;5069685;28;20381;-73
2024/03/12 04:03:52;;;;;;;155.38;52.53;;;;;;;4.47;100.00;100594.06;5072950;28;20471;-72
2024/03/12 04:06:21;;;;;;;256.98;64.47;;;;;;;4.47;100.00;100596.69;5062633;28;20044;-73
2024/03/12 04:08:50;;;;;;;353.90;67.80;;;;;;;4.07;100.00;100589.38;5068665;28;20021;-73
2024/03/12 04:11:20;;;;;;;319.45;67.75;;;;;;;4.00;100.00;100601.41;5070194;28;20107;-73
2024/03/12 04:13:54;;;;;;;347.23;72.15;;;;;;;4.04;100.00;100621.34;5073132;28;20028;-75
2024/03/12 04:16:20;;;;;;;154.18;52.92;;;;;;;4.25;100.00;100618.78;5077457;28;20043;-73
2024/03/12 04:18:46;;;;;;;196.95;60.50;;;;;;;4.39;100.00;100618.47;5072336;28;20561;-73
2024/03/12 04:21:11;;;;;;;241.82;59.20;;;;;;;4.40;100.00;100617.53;5083263;28;20025;-73
2024/03/12 04:23:38;;;;;;;173.30;60.75;;;;;;;4.50;100.00;100622.91;5079213;28;20107;-72
2024/03/12 04:26:03;;;;;;;161.48;55.63;;;;;;;4.56;100.00;100621.53;5077179;28;20040;-72
2024/03/12 04:28:29;;;;;;;166.40;55.40;;;;;;;4.56;100.00;100613.59;5068470;28;20016;-71
2024/03/12 04:30:55;;;;;;;215.65;57.92;;;;;;;4.47;100.00;100617.84;5068254;28;20507;-72
2024/03/12 04:33:20;;;;;;;242.43;66.20;;;;;;;4.44;100.00;100612.81;5046835;28;20531;-73
2024/03/12 04:35:45;;;;;;;173.90;58.37;;;;;;;4.47;100.00;100617.00;5069090;28;20032;-73
2024/03/12 04:38:12;;;;;;;309.30;64.40;;;;;;;4.44;100.00;100616.28;5078310;28;20279;-72
2024/03/12 04:40:37;;;;;;;181.77;55.55;;;;;;;4.26;100.00;100614.31;5070286;28;20261;-70
2024/03/12 04:43:03;;;;;;;144.23;52.15;;;;;;;4.49;100.00;100625.66;5076306;28;20410;-70
2024/03/12 04:45:29;;;;;;;141.02;51.83;;;;;;;4.55;100.00;100615.41;5080390;28;20029;-73
2024/03/12 04:47:54;;;;;;;151.00;52.38;;;;;;;4.62;100.00;100613.94;5067374;28;20036;-73
2024/03/12 04:50:22;;;;;;;146.07;51.58;;;;;;;4.68;100.00;100617.03;5067307;28;20032;-73
2024/03/12 04:52:49;;;;;;;150.85;55.45;;;;;;;4.69;100.00;100616.94;5067848;28;20408;-71
2024/03/12 04:55:15;;;;;;;155.75;54.35;;;;;;;4.67;100.00;100605.63;5067220;28;20048;-74
2024/03/12 04:57:41;;;;;;;125.55;48.17;;;;;;;4.68;100.00;100606.47;5076192;28;20214;-72
2024/03/12 05:00:18;;;;;;;129.02;45.35;;;;;;;4.56;100.00;100627.66;5069635;28;20039;-73
2024/03/12 05:02:50;;;;;;;329.90;64.35;;;;;;;4.25;100.00;100625.88;5065150;28;20056;-73
2024/03/12 05:05:20;;;;;;;309.05;63.42;;;;;;;4.18;100.00;100618.44;5082123;28;20511;-75
2024/03/12 05:07:47;;;;;;;379.60;64.07;;;;;;;3.93;100.00;100619.59;5070226;28;20078;-75
2024/03/12 05:10:14;;;;;;;189.48;51.80;;;;;;;4.02;100.00;100628.56;5078425;28;20016;-73
2024/03/12 05:12:40;;;;;;;141.45;47.42;;;;;;;3.99;100.00;100628.81;5065638;28;20036;-76
2024/03/12 05:15:07;;;;;;;147.23;51.85;;;;;;;4.23;100.00;100632.09;5075173;28;20047;-75
2024/03/12 05:17:34;;;;;;;131.52;49.33;;;;;;;4.36;100.00;100639.06;5069542;28;20980;-73
2024/03/12 05:20:00;;;;;;;149.05;53.38;;;;;;;4.39;100.00;100633.50;5074116;28;20039;-74
2024/03/12 05:22:25;;;;;;;110.70;45.20;;;;;;;4.43;100.00;100640.22;5079558;28;20020;-76
2024/03/12 05:24:51;;;;;;;119.90;49.87;;;;;;;4.52;100.00;100638.63;5067844;28;20028;-75
2024/03/12 05:27:23;;;;;;;131.25;49.65;;;;;;;4.58;100.00;100632.84;5070939;28;20807;-74
2024/03/12 05:29:53;;;;;;;129.23;49.35;;;;;;;4.62;100.00;100642.19;5071667;28;20055;-76
2024/03/12 05:32:21;;;;;;;114.63;49.08;;;;;;;4.62;100.00;100645.69;5071416;28;20060;-76
2024/03/12 05:34:47;;;;;;;133.27;48.80;;;;;;;4.62;100.00;100648.31;5063897;28;20020;-75
2024/03/12 05:37:29;;;;;;;165.65;50.22;;;;;;;4.42;100.00;100638.53;5064393;28;20024;-73
2024/03/12 05:40:16;;;;;;;202.18;51.65;;;;;;;4.22;100.00;100637.53;5062757;28;20062;-74
2024/03/12 05:48:10;;;;;;;214.57;59.47;;;;;;;4.22;100.00;100656.03;5079923;28;20093;-73
2024/03/12 05:50:40;;;;;;;547.25;82.78;;;;;;;4.27;100.00;100664.41;5081410;28;20052;-76
2024/03/12 05:53:07;;;;;;;215.80;57.30;;;;;;;4.16;100.00;100670.56;5072950;28;20122;-76
2024/03/12 05:55:32;;;;;;;136.95;49.90;;;;;;;4.16;100.00;100662.63;5069531;28;20032;-73
2024/03/12 05:57:58;;;;;;;134.77;52.15;;;;;;;4.31;100.00;100676.44;5077245;28;20081;-73
2024/03/12 06:00:24;;;;;;;233.75;57.53;;;;;;;4.09;100.00;100669.38;5073605;28;20115;-76
2024/03/12 06:02:49;;;;;;;175.98;54.50;;;;;;;4.29;100.00;100672.22;5082209;28;20028;-76
2024/03/12 06:05:16;;;;;;;136.32;50.72;;;;;;;4.27;100.00;100680.28;5074019;28;20024;-75
2024/03/12 06:07:44;;;;;;;371.00;70.13;;;;;;;4.37;100.00;100685.66;5066531;28;20028;-76
2024/03/12 06:10:11;;;;;;;171.68;54.85;;;;;;;4.39;100.00;100689.03;5067593;28;20530;-75
2024/03/12 06:12:37;;;;;;;279.40;61.00;;;;;;;4.30;100.00;100679.19;5058706;28;20594;-73
2024/03/12 06:15:06;;;;;;;183.18;54.58;;;;;;;4.37;100.00;100691.78;5067728;28;20032;-71
2024/03/12 06:17:32;;;;;;;309.70;61.95;;;;;;;4.28;100.00;100687.22;5075279;28;20025;-74
2024/03/12 06:19:58;;;;;;;157.02;53.15;;;;;;;4.40;100.00;100693.31;5066761;28;20426;-72
2024/03/12 06:22:24;;;;;;;169.93;54.45;;;;;;;4.53;100.00;100712.53;5068830;28;20027;-73
2024/03/12 06:24:49;;;;;;;232.40;60.08;;;;;;;4.58;100.00;100710.34;5077356;28;20367;-73
2024/03/12 06:27:16;;;;;;;134.57;48.03;;;;;;;4.65;100.00;100711.53;5081785;28;20536;-71
2024/03/12 06:29:42;;;;;;;155.32;53.90;;;;;;;4.55;100.00;100707.97;5074436;28;20024;-73
2024/03/12 06:32:07;;;;;;;176.02;53.92;;;;;;;4.64;100.00;100712.50;5081290;28;20501;-72
2024/03/12 06:34:33;;;;;;;134.32;50.33;;;;;;;4.71;100.00;100712.03;5073528;28;20072;-71
2024/03/12 06:36:58;;;;;;;206.00;56.20;;;;;;;4.71;100.00;100707.56;5081381;28;20024;-75
2024/03/12 06:39:32;;;;;;;187.70;52.33;;;;;;;4.62;100.00;100710.97;5066640;28;20441;-75
2024/03/12 06:42:02;;;;;;;157.57;55.28;;;;;;;4.76;100.00;100723.06;5079417;28;20047;-73
2024/03/12 06:44:28;;;;;;;293.25;63.95;;;;;;;4.65;100.00;100719.47;5078391;28;20059;-74
2024/03/12 06:46:54;;;;;;;161.48;52.10;;;;;;;4.70;100.00;100712.97;5080735;28;20051;-75
2024/03/12 06:49:20;;;;;;;;;;;;;;;4.84;100.00;100724.09;5080550;28;20712;-73
2024/03/12 06:51:50;;;;;;;109.13;46.08;;;;;;;4.82;100.00;100728.69;5075542;28;19994;-74
2024/03/12 06:54:16;;;;;;;108.30;48.60;;;;;;;4.93;100.00;100730.44;5071478;28;20028;-75
2024/03/12 06:56:43;;;;;;;109.45;44.28;;;;;;;4.96;100.00;100731.97;5070277;28;20470;-74
2024/03/12 06:59:15;;;;;;;116.47;49.20;;;;;;;4.90;100.00;100730.69;5077899;28;20084;-75
2024/03/12 07:01:41;;;;;;;114.22;47.20;;;;;;;5.03;100.00;100741.97;5079646;28;20032;-75
2024/03/12 07:04:11;;;;;;;233.93;57.72;;;;;;;4.86;100.00;100726.63;5068334;28;20043;-73
2024/03/12 07:06:37;;;;;;;105.65;47.60;;;;;;;4.92;100.00;100731.41;5078798;28;20036;-73
2024/03/12 07:09:08;;;;;;;113.30;46.97;;;;;;;4.96;100.00;100729.34;5078226;28;20042;-71
2024/03/12 07:11:39;;;;;;;133.73;46.58;;;;;;;4.99;100.00;100729.94;5078570;28;20036;-73
2024/03/12 07:14:12;;;;;;;99.93;43.22;;;;;;;5.11;100.00;100735.19;5068881;28;20028;-72
2024/03/12 07:16:42;;;;;;;121.38;48.15;;;;;;;5.23;100.00;100739.47;5082739;28;20047;-70
2024/03/12 07:19:10;;;;;;;97.75;45.60;;;;;;;5.17;100.00;100737.31;5077170;28;20059;-70
2024/03/12 07:21:38;;;;;;;225.35;54.40;;;;;;;4.94;100.00;100724.19;5078253;28;20515;-71
2024/03/12 07:24:07;;;;;;;187.82;52.22;;;;;;;4.73;100.00;100718.84;5078094;28;20047;-72
2024/03/12 07:26:33;;;;;;;98.65;42.75;;;;;;;4.97;100.00;100733.69;5075988;28;20135;-70
2024/03/12 07:29:01;;;;;;;127.40;48.42;;;;;;;5.14;100.00;100748.16;5053944;28;20070;-72
2024/03/12 07:31:26;;;;;;;218.55;50.58;;;;;;;4.86;100.00;100735.38;5067354;28;20029;-72
2024/03/12 07:33:55;;;;;;;101.28;45.42;;;;;;;4.94;100.00;100732.13;5079371;28;20024;-72
2024/03/12 07:36:21;;;;;;;127.50;48.00;;;;;;;5.08;100.00;100745.06;5066190;28;20106;-72
2024/03/12 07:38:47;;;;;;;112.72;49.90;;;;;;;5.27;100.00;100759.41;5061233;28;20027;-72
2024/03/12 07:41:12;;;;;;;114.00;45.92;;;;;;;5.26;100.00;100757.72;5067146;28;20075;-69
2024/03/12 07:43:38;;;;;;;98.50;43.83;;;;;;;5.12;100.00;100752.75;5081093;28;20044;-69
2024/03/12 07:46:03;;;;;;;112.37;45.70;;;;;;;5.07;100.00;100753.13;5059638;28;20266;-72
2024/03/12 07:48:28;;;;;;;102.67;45.50;;;;;;;5.14;100.00;100750.81;5066287;28;20037;-72
2024/03/12 07:50:58;;;;;;;107.15;45.83;;;;;;;5.15;100.00;100757.75;5067333;28;20037;-71
2024/03/12 07:53:28;;;;;;;102.47;43.97;;;;;;;5.35;100.00;100772.84;5045854;28;20410;-72
2024/03/12 07:56:00;;;;;;;113.45;46.25;;;;;;;5.27;100.00;100760.25;5068188;28;20040;-72
2024/03/12 07:58:28;;;;;;;112.05;44.42;;;;;;;4.91;100.00;100748.25;5073310;28;20059;-72
2024/03/12 08:00:57;;;;;;;104.47;42.88;;;;;;;5.00;100.00;100752.78;5064884;28;20052;-72
2024/03/12 08:03:22;;;;;;;124.45;46.97;;;;;;;5.13;100.00;100757.03;5076671;28;20147;-70
2024/03/12 08:05:48;;;;;;;107.93;43.63;;;;;;;5.13;100.00;100755.25;5072437;28;20468;-70
2024/03/12 08:08:13;;;;;;;91.60;41.33;;;;;;;5.23;100.00;100769.41;5066185;28;20093;-71
2024/03/12 08:10:39;;;;;;;96.47;41.60;;;;;;;5.22;100.00;100769.53;5072072;28;20036;-71
2024/03/12 08:13:07;;;;;;;97.53;43.47;;;;;;;5.38;100.00;100779.69;5061881;28;20031;-72
2024/03/12 08:15:34;;;;;;;93.97;41.72;;;;;;;5.45;100.00;100775.56;5076124;28;20138;-71
2024/03/12 08:18:01;;;;;;;99.13;42.55;;;;;;;5.26;100.00;100774.44;5071058;28;20040;-71
2024/03/12 08:20:27;;;;;;;100.32;40.55;;;;;;;5.43;100.00;100780.13;5070820;28;20364;-71
2024/03/12 08:22:52;;;;;;;89.03;39.92;;;;;;;5.54;100.00;100779.25;5073826;28;20090;-72
2024/03/12 08:25:18;;;;;;;89.95;41.55;;;;;;;5.50;100.00;100781.28;5070518;28;20035;-70
2024/03/12 08:27:44;;;;;;;89.65;41.92;;;;;;;5.33;100.00;100772.13;5068627;28;20085;-71
2024/03/12 08:30:11;;;;;;;85.78;40.50;;;;;;;5.56;100.00;100779.97;5074459;28;20028;-71
2024/03/12 08:32:37;;;;;;;90.57;41.78;;;;;;;5.48;100.00;100777.97;5072468;28;20044;-72
2024/03/12 08:35:03;;;;;;;98.82;42.20;;;;;;;5.14;100.00;100759.56;5067095;28;20058;-69
2024/03/12 08:37:29;;;;;;;99.72;42.35;;;;;;;5.33;100.00;100784.53;5074112;28;20032;-71
2024/03/12 08:39:55;;;;;;;97.82;41.10;;;;;;;5.39;100.00;100784.84;5076195;28;20055;-72
2024/03/12 08:42:21;;;;;;;91.68;40.72;;;;;;;5.54;100.00;100788.03;5073926;28;20038;-72
2024/03/12 08:44:46;;;;;;;88.55;41.03;;;;;;;5.37;100.00;100786.78;5077595;28;20256;-72
2024/03/12 08:47:12;;;;;;;85.75;39.35;;;;;;;5.51;100.00;100788.28;5074645;28;20763;-72
2024/03/12 08:49:38;;;;;;;74.78;37.45;;;;;;;5.71;100.00;100794.53;5063577;28;20094;-71
2024/03/12 08:52:04;;;;;;;79.50;39.28;;;;;;;5.44;100.00;100777.38;5075530;28;20031;-71
2024/03/12 08:54:33;;;;;;;75.72;37.53;;;;;;;5.72;100.00;100790.94;5075420;28;20024;-71
2024/03/12 08:57:00;;;;;;;87.75;40.75;;;;;;;5.76;100.00;100792.38;5080945;28;20060;-72
2024/03/12 08:59:26;;;;;;;75.13;38.40;;;;;;;5.95;100.00;100796.09;5070023;28;20371;-71
2024/03/12 09:01:57;;;;;;;81.85;37.58;;;;;;;5.69;100.00;100781.44;5073864;28;20350;-70
2024/03/12 09:04:22;;;;;;;79.70;38.42;;;;;;;5.78;100.00;100785.09;5073667;28;20024;-72
2024/03/12 09:06:48;;;;;;;71.47;35.90;;;;;;;6.02;100.00;100794.63;5076512;28;20051;-69
2024/03/12 09:09:15;;;;;;;77.22;37.50;;;;;;;5.89;100.00;100786.84;5064990;28;20450;-72
2024/03/12 09:11:41;;;;;;;84.30;40.67;;;;;;;5.78;100.00;100781.63;5075651;28;20032;-71
2024/03/12 09:14:07;;;;;;;75.25;38.22;;;;;;;5.82;100.00;100786.53;5066256;28;20032;-72
2024/03/12 09:16:33;;;;;;;79.97;39.35;;;;;;;5.62;100.00;100784.72;5065729;28;20596;-70
2024/03/12 09:19:00;;;;;;;;;;;;;;;5.70;100.00;100787.56;5067102;28;20028;-71
2024/03/12 09:21:26;;;;;;;78.65;36.95;;;;;;;5.64;100.00;100790.72;5073125;28;20011;-72
2024/03/12 09:23:51;;;;;;;;;;;;;;;5.78;100.00;100801.00;5076912;28;20035;-72
2024/03/12 09:26:18;;;;;;;73.82;36.38;;;;;;;5.92;100.00;100808.63;5058590;28;19917;-72
2024/03/12 09:28:43;;;;;;;87.68;38.03;;;;;;;5.67;100.00;100795.78;5084032;28;20072;-71
2024/03/12 09:31:09;;;;;;;89.35;39.90;;;;;;;5.84;100.00;100805.78;5065023;28;20063;-71
2024/03/12 09:33:34;;;;;;;79.57;37.40;;;;;;;6.09;100.00;100819.63;5074149;28;20585;-71
2024/03/12 09:36:00;;;;;;;79.95;37.90;;;;;;;6.06;100.00;100815.44;5066608;28;20029;-70
2024/03/12 09:38:25;;;;;;;75.07;37.25;;;;;;;5.87;100.00;100810.81;5072487;28;20035;-71
2024/03/12 09:40:54;;;;;;;76.87;35.23;;;;;;;5.71;100.00;100794.53;5067919;28;20093;-71
2024/03/12 09:43:22;;;;;;;79.38;37.67;;;;;;;5.63;100.00;100810.25;5060357;28;20056;-70
2024/03/12 09:45:49;;;;;;;74.88;36.03;;;;;;;5.98;100.00;100836.44;5069553;28;20028;-69
2024/03/12 09:48:15;;;;;;;90.05;41.85;;;;;;;5.81;100.00;100815.81;5072369;28;20089;-71
2024/03/12 09:50:43;;;;;;;79.22;39.50;;;;;;;6.04;100.00;100825.34;5074314;28;20072;-71
2024/03/12 09:53:11;;;;;;;75.95;37.47;;;;;;;6.34;100.00;100839.56;5074601;28;20055;-71
2024/03/12 09:55:38;;;;;;;74.38;36.85;;;;;;;6.01;100.00;100806.19;5067428;28;20055;-70
2024/03/12 09:58:06;;;;;;;72.13;36.97;;;;;;;6.10;100.00;100818.66;5074067;28;20477;-71
2024/03/12 10:00:33;;;;;;;70.38;34.10;;;;;;;6.29;100.00;100832.00;5075011;28;20035;-71
2024/03/12 10:02:59;;;;;;;80.45;38.15;;;;;;;5.79;100.00;100805.34;5067392;28;20044;-71
2024/03/12 10:05:25;;;;;;;71.22;36.92;;;;;;;5.99;100.00;100822.22;5076205;28;20086;-70
2024/03/12 10:08:13;;;;;;;81.45;36.50;;;;;;;6.46;100.00;100853.56;5079104;28;20031;-71
2024/03/12 10:10:43;;;;;;;68.45;35.25;;;;;;;6.25;100.00;100830.59;5076087;28;20594;-70
2024/03/12 10:13:14;;;;;;;72.22;34.17;;;;;;;5.97;100.00;100820.66;5069329;28;20734;-72
2024/03/12 10:15:59;;;;;;;70.63;34.60;;;;;;;5.99;100.00;100819.56;5082528;28;20032;-72
2024/03/12 10:18:37;;;;;;;65.72;33.40;;;;;;;6.04;100.00;100830.63;5072179;28;20035;-72
2024/03/12 10:21:02;;;;;;;71.72;33.95;;;;;;;5.98;100.00;100828.50;5074285;28;20039;-70
2024/03/12 10:23:30;;;;;;;67.45;34.25;;;;;;;6.06;100.00;100835.78;5066638;28;20033;-72
2024/03/12 10:26:10;;;;;;;66.07;34.58;;;;;;;5.97;100.00;100826.84;5078490;28;20120;-71
2024/03/12 10:28:39;;;;;;;67.30;33.65;;;;;;;6.16;100.00;100835.84;5065438;28;20041;-72
2024/03/12 10:31:09;;;;;;;73.13;37.13;;;;;;;6.28;100.00;100840.09;5075012;28;20028;-74
2024/03/12 10:33:40;;;;;;;73.60;36.38;;;;;;;6.17;100.00;100830.41;5076817;28;20036;-74
2024/03/12 10:36:10;;;;;;;71.22;35.63;;;;;;;6.14;100.00;100828.03;5080317;28;20063;-74
2024/03/12 10:38:36;;;;;;;78.13;36.80;;;;;;;6.24;100.00;100843.97;5075305;28;20032;-74
2024/03/12 10:41:16;;;;;;;82.43;37.05;;;;;;;5.79;100.00;100817.75;5069709;28;20039;-73
2024/03/12 10:43:42;;;;;;;79.43;37.90;;;;;;;5.69;100.00;100829.13;5077207;28;20064;-74
2024/03/12 10:46:10;;;;;;;84.65;40.00;;;;;;;5.60;100.00;100839.66;5068756;28;20718;-74
2024/03/12 10:48:40;;;;;;;86.00;40.70;;;;;;;5.80;100.00;100862.66;5076053;28;20040;-74
2024/03/12 10:51:06;;;;;;;93.45;42.22;;;;;;;5.69;100.00;100865.38;5076926;28;20634;-74
2024/03/12 10:53:33;;;;;;;;;;;;;;;6.06;100.00;100888.78;5076051;28;20027;-73
2024/03/12 10:55:59;;;;;;;87.50;40.53;;;;;;;6.23;100.00;100885.56;5070077;28;19924;-72
2024/03/12 10:58:26;;;;;;;87.18;38.83;;;;;;;6.37;100.00;100887.03;5066785;28;20048;-73
2024/03/12 11:00:54;;;;;;;80.70;37.72;;;;;;;5.83;100.00;100851.81;5066614;28;20032;-74
2024/03/12 11:03:23;;;;;;;81.30;37.63;;;;;;;6.01;100.00;100856.53;5061992;28;20504;-72
2024/03/12 11:05:49;;;;;;;92.40;41.47;;;;;;;6.13;100.00;100863.44;5065095;28;20103;-70
2024/03/12 11:08:16;;;;;;;91.22;41.00;;;;;;;5.95;100.00;100854.41;5073671;28;20035;-72
2024/03/12 11:10:44;;;;;;;94.72;43.30;;;;;;;6.07;100.00;100869.28;5075597;28;20028;-72
2024/03/12 11:13:13;;;;;;;81.53;38.55;;;;;;;5.80;100.00;100860.00;5074325;28;20621;-71